地図

経路データ

SID SEASON NUMBER BASIN SUBBASIN NAME ISO_TIME NATURE LAT LON WMO_WIND WMO_PRES WMO_AGENCY TRACK_TYPE DIST2LAND LANDFALL IFLAG USA_AGENCY USA_ATCF_ID USA_LAT USA_LON USA_RECORD USA_STATUS USA_WIND USA_PRES USA_SSHS USA_R34_NE USA_R34_SE USA_R34_SW USA_R34_NW USA_R50_NE USA_R50_SE USA_R50_SW USA_R50_NW USA_R64_NE USA_R64_SE USA_R64_SW USA_R64_NW USA_POCI USA_ROCI USA_RMW USA_EYE TOKYO_LAT TOKYO_LON TOKYO_GRADE TOKYO_WIND TOKYO_PRES TOKYO_R50_DIR TOKYO_R50_LONG TOKYO_R50_SHORT TOKYO_R30_DIR TOKYO_R30_LONG TOKYO_R30_SHORT TOKYO_LAND CMA_LAT CMA_LON CMA_CAT CMA_WIND CMA_PRES HKO_LAT HKO_LON HKO_CAT HKO_WIND HKO_PRES NEWDELHI_LAT NEWDELHI_LON NEWDELHI_GRADE NEWDELHI_WIND NEWDELHI_PRES NEWDELHI_CI NEWDELHI_DP NEWDELHI_POCI REUNION_LAT REUNION_LON REUNION_TYPE REUNION_WIND REUNION_PRES REUNION_TNUM REUNION_CI REUNION_RMW REUNION_R34_NE REUNION_R34_SE REUNION_R34_SW REUNION_R34_NW REUNION_R50_NE REUNION_R50_SE REUNION_R50_SW REUNION_R50_NW REUNION_R64_NE REUNION_R64_SE REUNION_R64_SW REUNION_R64_NW BOM_LAT BOM_LON BOM_TYPE BOM_WIND BOM_PRES BOM_TNUM BOM_CI BOM_RMW BOM_R34_NE BOM_R34_SE BOM_R34_SW BOM_R34_NW BOM_R50_NE BOM_R50_SE BOM_R50_SW BOM_R50_NW BOM_R64_NE BOM_R64_SE BOM_R64_SW BOM_R64_NW BOM_ROCI BOM_POCI BOM_EYE BOM_POS_METHOD BOM_PRES_METHOD NADI_LAT NADI_LON NADI_CAT NADI_WIND NADI_PRES WELLINGTON_LAT WELLINGTON_LON WELLINGTON_WIND WELLINGTON_PRES DS824_LAT DS824_LON DS824_STAGE DS824_WIND DS824_PRES TD9636_LAT TD9636_LON TD9636_STAGE TD9636_WIND TD9636_PRES TD9635_LAT TD9635_LON TD9635_WIND TD9635_PRES TD9635_ROCI NEUMANN_LAT NEUMANN_LON NEUMANN_CLASS NEUMANN_WIND NEUMANN_PRES MLC_LAT MLC_LON MLC_CLASS MLC_WIND MLC_PRES USA_GUST BOM_GUST BOM_GUST_PER REUNION_GUST REUNION_GUST_PER USA_SEAHGT USA_SEARAD_NE USA_SEARAD_SE USA_SEARAD_SW USA_SEARAD_NW STORM_SPEED STORM_DIR
1894303N13090 1894 52 NI BB NOT_NAMED 1894-10-30 00:00:00 TS 12.7000 90.1000 main 575 575 _________O____ -1 12.7000 90.1000 TC 30 6 287
1894303N13090 1894 52 NI BB NOT_NAMED 1894-10-30 03:00:00 TS 12.7935 89.7934 main 594 594 _________PO___ -1 12.8402 89.6401 TC 30 12.7000 90.1000 1 7 290
1894303N13090 1894 52 NI BB NOT_NAMED 1894-10-30 06:00:00 TS 12.9464 89.3901 main 622 616 _________OP___ -1 13.0000 89.2000 TC 30 12.8661 89.6753 1 9 293
1894303N13090 1894 52 NI BB NOT_NAMED 1894-10-30 09:00:00 TS 13.1251 88.9886 main 647 647 _________PP___ -1 13.1924 88.7925 TC 30 13.0355 89.2502 1 8 295
1894303N13090 1894 52 NI BB NOT_NAMED 1894-10-30 12:00:00 TS 13.3061 88.6125 main 674 674 _________OP___ -1 13.4000 88.4000 TC 30 13.2121 88.8251 1 9 296
1894303N13090 1894 52 NI BB NOT_NAMED 1894-10-30 15:00:00 TS 13.5000 88.2000 main 693 649 _________PO___ -1 13.5999 87.9999 TC 30 13.4000 88.4000 1 9 296
1894303N13090 1894 52 NI BB NOT_NAMED 1894-10-30 18:00:00 TS 13.7004 87.7883 main 649 605 _________OP___ -1 13.8000 87.6000 TC 30 13.6009 87.9766 1 9 297
1894303N13090 1894 52 NI BB NOT_NAMED 1894-10-30 21:00:00 TS 13.9075 87.3738 main 605 562 _________PP___ -1 14.0075 87.1850 TC 30 13.8074 87.5626 1 9 297
1894303N13090 1894 52 NI BB NOT_NAMED 1894-10-31 00:00:00 TS 14.1051 86.9836 main 562 525 _________OP___ -1 14.2000 86.8000 TC 30 14.0103 87.1673 1 8 298
1894303N13090 1894 52 NI BB NOT_NAMED 1894-10-31 03:00:00 TS 14.2787 86.6424 main 518 495 _________PO___ -1 14.3574 86.4849 TC 30 14.2000 86.8000 1 7 298
1894303N13090 1894 52 NI BB NOT_NAMED 1894-10-31 06:00:00 TS 14.4341 86.3335 main 487 449 _________OP___ -1 14.5000 86.2000 TC 30 14.3681 86.4669 1 7 297
1894303N13090 1894 52 NI BB NOT_NAMED 1894-10-31 09:00:00 TS 14.5861 86.0273 main 449 427 _________PP___ -1 14.6500 85.8925 TC 30 14.5221 86.1622 1 7 297
1894303N13090 1894 52 NI BB NOT_NAMED 1894-10-31 12:00:00 TS 14.7325 85.7382 main 420 389 _________OP___ -1 14.8000 85.6000 TC 30 14.6651 85.8764 1 6 299
1894303N13090 1894 52 NI BB NOT_NAMED 1894-10-31 15:00:00 TS 14.8787 85.4750 main 389 358 _________PO___ -1 14.9574 85.3500 TC 30 14.8000 85.6000 1 6 299
1894303N13090 1894 52 NI BB NOT_NAMED 1894-10-31 18:00:00 TS 15.0099 85.2148 main 358 334 _________OP___ -1 15.1000 85.1000 TC 30 14.9197 85.3297 1 6 294
1894303N13090 1894 52 NI BB NOT_NAMED 1894-10-31 21:00:00 TS 15.1135 84.9397 main 324 300 _________PP___ -1 15.1925 84.8149 TC 30 15.0346 85.0645 1 6 292
1894303N13090 1894 52 NI BB NOT_NAMED 1894-11-01 00:00:00 TS 15.2286 84.6460 main 291 252 _________OP___ -1 15.3000 84.5000 TC 30 15.1572 84.7921 1 7 295
1894303N13090 1894 52 NI BB NOT_NAMED 1894-11-01 03:00:00 TS 15.3925 84.3288 main 252 213 _________PO___ -1 15.4850 84.1575 TC 30 15.3000 84.5000 1 7 300
1894303N13090 1894 52 NI BB NOT_NAMED 1894-11-01 06:00:00 TS 15.5912 83.9858 main 213 174 _________OP___ -1 15.7000 83.8000 TC 30 15.4825 84.1716 1 8 301
1894303N13090 1894 52 NI BB NOT_NAMED 1894-11-01 09:00:00 TS 15.7925 83.6363 main 165 126 _________PP___ -1 15.8999 83.4499 TC 30 15.6850 83.8226 1 8 301
1894303N13090 1894 52 NI BB NOT_NAMED 1894-11-01 12:00:00 TS 15.9975 83.2811 main 126 78 _________OP___ -1 16.1000 83.1000 TC 30 15.8950 83.4622 1 8 301
1894303N13090 1894 52 NI BB NOT_NAMED 1894-11-01 15:00:00 TS 16.2037 82.9250 main 78 39 _________PO___ -1 16.3074 82.7500 TC 30 16.1000 83.1000 1 8 300
1894303N13090 1894 52 NI BB NOT_NAMED 1894-11-01 18:00:00 TS 16.3803 82.5963 main 39 11 _________OP___ -1 16.5000 82.4000 TC 30 16.2905 82.7435 1 7 298
1894303N13090 1894 52 NI BB NOT_NAMED 1894-11-01 21:00:00 TS 16.5448 82.2557 main 11 0 _________PP___ -1 16.6601 82.0501 TC 30 16.4678 82.3928 1 7 296
1894303N13090 1894 52 NI BB NOT_NAMED 1894-11-02 00:00:00 TS 16.6909 81.9304 main 0 0 _________OP___ -1 16.8000 81.7000 TC 30 16.6363 82.0456 1 6 296
1894303N13090 1894 52 NI BB NOT_NAMED 1894-11-02 03:00:00 NR 16.8000 81.7000 main 0 __________O___ -1 TC 16.8000 81.7000 1 5 296

IBTrACS Databaseについて

本データベースは、米国NOAAが公開する1842年以降の世界の熱帯低気圧のベストトラックデータアーカイブInternational Best Track Archive for Climate Stewardship (IBTrACS)を、ウェブで閲覧しやすい形式に変換したものです。

最終更新日:2021-10-08